sensor_id;sensor_type;location;lat;lon;timestamp;temperature;humidity
70368;DHT22;57789;53.868;10.728;2023-05-07T00:00:05;9.30;99.90
70368;DHT22;57789;53.868;10.728;2023-05-07T00:02:34;9.30;99.90
70368;DHT22;57789;53.868;10.728;2023-05-07T00:05:01;9.30;99.90
70368;DHT22;57789;53.868;10.728;2023-05-07T00:07:28;9.20;99.90
70368;DHT22;57789;53.868;10.728;2023-05-07T00:09:53;9.20;99.90
70368;DHT22;57789;53.868;10.728;2023-05-07T00:12:19;9.20;99.90
70368;DHT22;57789;53.868;10.728;2023-05-07T00:14:45;9.20;99.90
70368;DHT22;57789;53.868;10.728;2023-05-07T00:17:11;9.20;99.90
70368;DHT22;57789;53.868;10.728;2023-05-07T00:19:37;9.20;99.90
70368;DHT22;57789;53.868;10.728;2023-05-07T00:22:03;9.20;99.90
70368;DHT22;57789;53.868;10.728;2023-05-07T00:24:28;9.20;99.90
70368;DHT22;57789;53.868;10.728;2023-05-07T00:26:54;9.20;99.90
70368;DHT22;57789;53.868;10.728;2023-05-07T00:29:20;9.20;99.90
70368;DHT22;57789;53.868;10.728;2023-05-07T00:31:46;9.30;99.90
70368;DHT22;57789;53.868;10.728;2023-05-07T00:34:11;9.20;99.90
70368;DHT22;57789;53.868;10.728;2023-05-07T00:36:37;9.20;99.90
70368;DHT22;57789;53.868;10.728;2023-05-07T00:39:03;9.20;99.90
70368;DHT22;57789;53.868;10.728;2023-05-07T00:41:29;9.10;99.90
70368;DHT22;57789;53.868;10.728;2023-05-07T00:43:58;9.20;99.90
70368;DHT22;57789;53.868;10.728;2023-05-07T00:46:24;9.20;99.90
70368;DHT22;57789;53.868;10.728;2023-05-07T00:48:50;9.20;99.90
70368;DHT22;57789;53.868;10.728;2023-05-07T00:51:17;9.20;99.90
70368;DHT22;57789;53.868;10.728;2023-05-07T00:53:44;9.10;99.90
70368;DHT22;57789;53.868;10.728;2023-05-07T00:56:10;9.10;99.90
70368;DHT22;57789;53.868;10.728;2023-05-07T00:58:36;9.10;99.90
70368;DHT22;57789;53.868;10.728;2023-05-07T01:01:02;9.10;99.90
70368;DHT22;57789;53.868;10.728;2023-05-07T01:03:28;9.10;99.90
70368;DHT22;57789;53.868;10.728;2023-05-07T01:05:55;9.10;99.90
70368;DHT22;57789;53.868;10.728;2023-05-07T01:08:23;9.10;99.90
70368;DHT22;57789;53.868;10.728;2023-05-07T01:10:53;9.10;99.90
70368;DHT22;57789;53.868;10.728;2023-05-07T01:13:19;9.00;99.90
70368;DHT22;57789;53.868;10.728;2023-05-07T01:15:45;9.00;99.90
70368;DHT22;57789;53.868;10.728;2023-05-07T01:18:11;9.10;99.90
70368;DHT22;57789;53.868;10.728;2023-05-07T01:20:37;9.00;99.90
70368;DHT22;57789;53.868;10.728;2023-05-07T01:23:03;9.00;99.90
70368;DHT22;57789;53.868;10.728;2023-05-07T01:25:29;9.00;99.90
70368;DHT22;57789;53.868;10.728;2023-05-07T01:27:56;9.10;99.90
70368;DHT22;57789;53.868;10.728;2023-05-07T01:30:22;9.00;99.90
70368;DHT22;57789;53.868;10.728;2023-05-07T01:32:52;9.00;99.90
70368;DHT22;57789;53.868;10.728;2023-05-07T01:35:22;9.00;99.90
70368;DHT22;57789;53.868;10.728;2023-05-07T01:37:49;9.00;99.90
70368;DHT22;57789;53.868;10.728;2023-05-07T01:40:15;9.00;99.90
70368;DHT22;57789;53.868;10.728;2023-05-07T01:42:43;9.00;99.90
70368;DHT22;57789;53.868;10.728;2023-05-07T01:45:09;9.00;99.90
70368;DHT22;57789;53.868;10.728;2023-05-07T01:47:39;9.00;99.90
70368;DHT22;57789;53.868;10.728;2023-05-07T01:50:09;8.90;99.90
70368;DHT22;57789;53.868;10.728;2023-05-07T01:52:37;9.00;99.90
70368;DHT22;57789;53.868;10.728;2023-05-07T01:55:04;9.00;99.90
70368;DHT22;57789;53.868;10.728;2023-05-07T01:57:30;8.90;99.90
70368;DHT22;57789;53.868;10.728;2023-05-07T01:59:56;9.00;99.90
70368;DHT22;57789;53.868;10.728;2023-05-07T02:02:21;9.00;99.90
70368;DHT22;57789;53.868;10.728;2023-05-07T02:04:47;9.10;99.90
70368;DHT22;57789;53.868;10.728;2023-05-07T02:07:13;9.00;99.90
70368;DHT22;57789;53.868;10.728;2023-05-07T02:09:38;9.00;99.90
70368;DHT22;57789;53.868;10.728;2023-05-07T02:12:04;9.00;99.90
70368;DHT22;57789;53.868;10.728;2023-05-07T02:14:30;9.00;99.90
70368;DHT22;57789;53.868;10.728;2023-05-07T02:16:56;9.00;99.90
70368;DHT22;57789;53.868;10.728;2023-05-07T02:19:22;9.00;99.90
70368;DHT22;57789;53.868;10.728;2023-05-07T02:21:47;8.90;99.90
70368;DHT22;57789;53.868;10.728;2023-05-07T02:24:13;8.90;99.90
70368;DHT22;57789;53.868;10.728;2023-05-07T02:26:42;8.90;99.90
70368;DHT22;57789;53.868;10.728;2023-05-07T02:29:08;9.00;99.90
70368;DHT22;57789;53.868;10.728;2023-05-07T02:31:34;9.00;99.90
70368;DHT22;57789;53.868;10.728;2023-05-07T02:34:00;9.00;99.90
70368;DHT22;57789;53.868;10.728;2023-05-07T02:36:26;9.10;99.90
70368;DHT22;57789;53.868;10.728;2023-05-07T02:38:52;9.00;99.90
70368;DHT22;57789;53.868;10.728;2023-05-07T02:41:18;9.00;99.90
70368;DHT22;57789;53.868;10.728;2023-05-07T02:43:44;9.00;99.90
70368;DHT22;57789;53.868;10.728;2023-05-07T02:46:10;9.00;99.90
70368;DHT22;57789;53.868;10.728;2023-05-07T02:48:36;9.00;99.90
70368;DHT22;57789;53.868;10.728;2023-05-07T02:51:02;9.00;99.90
70368;DHT22;57789;53.868;10.728;2023-05-07T02:53:28;9.00;99.90
70368;DHT22;57789;53.868;10.728;2023-05-07T02:55:59;9.00;99.90
70368;DHT22;57789;53.868;10.728;2023-05-07T02:58:25;9.00;99.90
70368;DHT22;57789;53.868;10.728;2023-05-07T03:00:51;9.00;99.90
70368;DHT22;57789;53.868;10.728;2023-05-07T03:03:17;8.90;99.90
70368;DHT22;57789;53.868;10.728;2023-05-07T03:05:43;8.90;99.90
70368;DHT22;57789;53.868;10.728;2023-05-07T03:08:09;8.90;99.90
70368;DHT22;57789;53.868;10.728;2023-05-07T03:10:36;8.90;99.90
70368;DHT22;57789;53.868;10.728;2023-05-07T03:13:02;8.90;99.90
70368;DHT22;57789;53.868;10.728;2023-05-07T03:15:28;8.90;99.90
70368;DHT22;57789;53.868;10.728;2023-05-07T03:17:54;8.90;99.90
70368;DHT22;57789;53.868;10.728;2023-05-07T03:20:20;8.90;99.90
70368;DHT22;57789;53.868;10.728;2023-05-07T03:22:48;8.90;99.90
70368;DHT22;57789;53.868;10.728;2023-05-07T03:25:14;8.90;99.90
70368;DHT22;57789;53.868;10.728;2023-05-07T03:27:40;8.90;99.90
70368;DHT22;57789;53.868;10.728;2023-05-07T03:30:08;8.90;99.90
70368;DHT22;57789;53.868;10.728;2023-05-07T03:32:34;8.90;99.90
70368;DHT22;57789;53.868;10.728;2023-05-07T03:35:01;8.80;99.90
70368;DHT22;57789;53.868;10.728;2023-05-07T03:37:27;8.90;99.90
70368;DHT22;57789;53.868;10.728;2023-05-07T03:39:53;8.90;99.90
70368;DHT22;57789;53.868;10.728;2023-05-07T03:42:19;8.90;99.90
70368;DHT22;57789;53.868;10.728;2023-05-07T03:44:45;8.90;99.90
70368;DHT22;57789;53.868;10.728;2023-05-07T03:47:11;8.90;99.90
70368;DHT22;57789;53.868;10.728;2023-05-07T03:49:36;8.90;99.90
70368;DHT22;57789;53.868;10.728;2023-05-07T03:52:02;8.90;99.90
70368;DHT22;57789;53.868;10.728;2023-05-07T03:54:28;8.90;99.90
70368;DHT22;57789;53.868;10.728;2023-05-07T03:56:54;8.90;99.90
70368;DHT22;57789;53.868;10.728;2023-05-07T03:59:20;8.90;99.90
70368;DHT22;57789;53.868;10.728;2023-05-07T04:01:45;9.00;99.90
70368;DHT22;57789;53.868;10.728;2023-05-07T04:04:11;8.90;99.90
70368;DHT22;57789;53.868;10.728;2023-05-07T04:06:37;8.90;99.90
70368;DHT22;57789;53.868;10.728;2023-05-07T04:09:03;8.90;99.90
70368;DHT22;57789;53.868;10.728;2023-05-07T04:11:29;9.00;99.90
70368;DHT22;57789;53.868;10.728;2023-05-07T04:13:54;9.00;99.90
70368;DHT22;57789;53.868;10.728;2023-05-07T04:16:20;9.00;99.90
70368;DHT22;57789;53.868;10.728;2023-05-07T04:18:46;9.00;99.90
70368;DHT22;57789;53.868;10.728;2023-05-07T04:21:18;9.00;99.90
70368;DHT22;57789;53.868;10.728;2023-05-07T04:23:48;9.00;99.90
70368;DHT22;57789;53.868;10.728;2023-05-07T04:26:14;9.00;99.90
70368;DHT22;57789;53.868;10.728;2023-05-07T04:28:40;9.00;99.90
70368;DHT22;57789;53.868;10.728;2023-05-07T04:31:06;9.10;99.90
70368;DHT22;57789;53.868;10.728;2023-05-07T04:33:32;9.10;99.90
70368;DHT22;57789;53.868;10.728;2023-05-07T04:36:02;9.20;99.90
70368;DHT22;57789;53.868;10.728;2023-05-07T04:38:30;9.10;99.90
70368;DHT22;57789;53.868;10.728;2023-05-07T04:40:58;9.20;99.90
70368;DHT22;57789;53.868;10.728;2023-05-07T04:43:23;9.20;99.90
70368;DHT22;57789;53.868;10.728;2023-05-07T04:45:51;9.20;99.90
70368;DHT22;57789;53.868;10.728;2023-05-07T04:48:17;9.30;99.90
70368;DHT22;57789;53.868;10.728;2023-05-07T04:50:49;9.40;99.90
70368;DHT22;57789;53.868;10.728;2023-05-07T04:53:15;9.40;99.90
70368;DHT22;57789;53.868;10.728;2023-05-07T04:55:41;9.40;99.90
70368;DHT22;57789;53.868;10.728;2023-05-07T04:58:08;9.40;99.90
70368;DHT22;57789;53.868;10.728;2023-05-07T05:00:34;9.50;99.90
70368;DHT22;57789;53.868;10.728;2023-05-07T05:02:59;9.50;99.90
70368;DHT22;57789;53.868;10.728;2023-05-07T05:05:25;9.50;99.90
70368;DHT22;57789;53.868;10.728;2023-05-07T05:07:51;9.50;99.90
70368;DHT22;57789;53.868;10.728;2023-05-07T05:10:17;9.60;99.90
70368;DHT22;57789;53.868;10.728;2023-05-07T05:12:44;9.60;99.90
70368;DHT22;57789;53.868;10.728;2023-05-07T05:15:12;9.60;99.90
70368;DHT22;57789;53.868;10.728;2023-05-07T05:17:38;9.70;99.90
70368;DHT22;57789;53.868;10.728;2023-05-07T05:20:04;9.70;99.90
70368;DHT22;57789;53.868;10.728;2023-05-07T05:22:31;9.70;99.90
70368;DHT22;57789;53.868;10.728;2023-05-07T05:24:57;9.70;99.90
70368;DHT22;57789;53.868;10.728;2023-05-07T05:27:23;9.70;99.90
70368;DHT22;57789;53.868;10.728;2023-05-07T05:29:49;9.70;99.90
70368;DHT22;57789;53.868;10.728;2023-05-07T05:32:15;9.70;99.90
70368;DHT22;57789;53.868;10.728;2023-05-07T05:34:40;9.70;99.90
70368;DHT22;57789;53.868;10.728;2023-05-07T05:37:06;9.80;99.90
70368;DHT22;57789;53.868;10.728;2023-05-07T05:39:32;9.80;99.90
70368;DHT22;57789;53.868;10.728;2023-05-07T05:41:58;9.80;99.90
70368;DHT22;57789;53.868;10.728;2023-05-07T05:44:23;9.90;99.90
70368;DHT22;57789;53.868;10.728;2023-05-07T05:46:49;9.90;99.90
70368;DHT22;57789;53.868;10.728;2023-05-07T05:49:15;9.90;99.90
70368;DHT22;57789;53.868;10.728;2023-05-07T05:51:41;9.90;99.90
70368;DHT22;57789;53.868;10.728;2023-05-07T05:54:07;10.00;99.90
70368;DHT22;57789;53.868;10.728;2023-05-07T05:56:33;10.00;99.90
70368;DHT22;57789;53.868;10.728;2023-05-07T05:59:01;10.10;99.90
70368;DHT22;57789;53.868;10.728;2023-05-07T06:01:27;10.20;99.90
70368;DHT22;57789;53.868;10.728;2023-05-07T06:03:53;10.20;99.90
70368;DHT22;57789;53.868;10.728;2023-05-07T06:06:19;10.20;99.90
70368;DHT22;57789;53.868;10.728;2023-05-07T06:08:45;10.30;99.90
70368;DHT22;57789;53.868;10.728;2023-05-07T06:11:13;10.40;99.90
70368;DHT22;57789;53.868;10.728;2023-05-07T06:13:39;10.40;99.90
70368;DHT22;57789;53.868;10.728;2023-05-07T06:16:05;10.50;99.90
70368;DHT22;57789;53.868;10.728;2023-05-07T06:18:31;10.80;99.90
70368;DHT22;57789;53.868;10.728;2023-05-07T06:20:57;10.90;99.90
70368;DHT22;57789;53.868;10.728;2023-05-07T06:23:23;10.90;99.90
70368;DHT22;57789;53.868;10.728;2023-05-07T06:25:49;10.90;99.90
70368;DHT22;57789;53.868;10.728;2023-05-07T06:28:18;11.00;99.90
70368;DHT22;57789;53.868;10.728;2023-05-07T06:30:44;11.20;99.90
70368;DHT22;57789;53.868;10.728;2023-05-07T06:33:10;11.40;99.90
70368;DHT22;57789;53.868;10.728;2023-05-07T06:35:38;11.40;99.90
70368;DHT22;57789;53.868;10.728;2023-05-07T06:38:03;11.50;99.90
70368;DHT22;57789;53.868;10.728;2023-05-07T06:40:29;11.40;99.90
70368;DHT22;57789;53.868;10.728;2023-05-07T06:42:55;11.50;99.90
70368;DHT22;57789;53.868;10.728;2023-05-07T06:45:21;11.50;99.90
70368;DHT22;57789;53.868;10.728;2023-05-07T06:47:46;11.40;99.90
70368;DHT22;57789;53.868;10.728;2023-05-07T06:50:12;11.30;99.90
70368;DHT22;57789;53.868;10.728;2023-05-07T06:52:38;11.30;99.90
70368;DHT22;57789;53.868;10.728;2023-05-07T06:55:04;11.40;99.90
70368;DHT22;57789;53.868;10.728;2023-05-07T06:57:30;11.40;99.90
70368;DHT22;57789;53.868;10.728;2023-05-07T06:59:56;11.50;99.90
70368;DHT22;57789;53.868;10.728;2023-05-07T07:02:21;11.60;99.90
70368;DHT22;57789;53.868;10.728;2023-05-07T07:04:47;11.70;99.90
70368;DHT22;57789;53.868;10.728;2023-05-07T07:07:13;11.80;99.90
70368;DHT22;57789;53.868;10.728;2023-05-07T07:09:39;11.80;99.90
70368;DHT22;57789;53.868;10.728;2023-05-07T07:12:05;11.70;99.90
70368;DHT22;57789;53.868;10.728;2023-05-07T07:14:30;11.70;99.90
70368;DHT22;57789;53.868;10.728;2023-05-07T07:16:56;11.60;99.90
70368;DHT22;57789;53.868;10.728;2023-05-07T07:19:22;11.70;99.90
70368;DHT22;57789;53.868;10.728;2023-05-07T07:21:48;11.80;99.90
70368;DHT22;57789;53.868;10.728;2023-05-07T07:24:14;11.80;99.90
70368;DHT22;57789;53.868;10.728;2023-05-07T07:26:44;11.70;99.90
70368;DHT22;57789;53.868;10.728;2023-05-07T07:29:10;11.70;99.90
70368;DHT22;57789;53.868;10.728;2023-05-07T07:31:36;11.80;99.90
70368;DHT22;57789;53.868;10.728;2023-05-07T07:34:02;11.80;99.90
70368;DHT22;57789;53.868;10.728;2023-05-07T07:36:29;11.70;99.90
70368;DHT22;57789;53.868;10.728;2023-05-07T07:38:55;11.70;99.90
70368;DHT22;57789;53.868;10.728;2023-05-07T07:41:24;11.70;99.90
70368;DHT22;57789;53.868;10.728;2023-05-07T07:43:50;11.80;99.90
70368;DHT22;57789;53.868;10.728;2023-05-07T07:46:15;11.90;99.90
70368;DHT22;57789;53.868;10.728;2023-05-07T07:48:41;12.00;99.90
70368;DHT22;57789;53.868;10.728;2023-05-07T07:51:07;12.30;99.90
70368;DHT22;57789;53.868;10.728;2023-05-07T07:53:33;12.50;99.90
70368;DHT22;57789;53.868;10.728;2023-05-07T07:55:58;12.60;99.90
70368;DHT22;57789;53.868;10.728;2023-05-07T07:58:25;12.60;99.90
70368;DHT22;57789;53.868;10.728;2023-05-07T08:00:50;12.60;99.90
70368;DHT22;57789;53.868;10.728;2023-05-07T08:03:16;12.40;99.90
70368;DHT22;57789;53.868;10.728;2023-05-07T08:05:42;12.70;99.90
70368;DHT22;57789;53.868;10.728;2023-05-07T08:08:09;12.70;99.90
70368;DHT22;57789;53.868;10.728;2023-05-07T08:10:34;12.70;99.90
70368;DHT22;57789;53.868;10.728;2023-05-07T08:13:03;12.70;99.90
70368;DHT22;57789;53.868;10.728;2023-05-07T08:15:29;12.80;99.90
70368;DHT22;57789;53.868;10.728;2023-05-07T08:17:55;12.90;99.90
70368;DHT22;57789;53.868;10.728;2023-05-07T08:20:23;12.90;99.90
70368;DHT22;57789;53.868;10.728;2023-05-07T08:22:49;13.00;99.90
70368;DHT22;57789;53.868;10.728;2023-05-07T08:25:15;13.30;99.90
70368;DHT22;57789;53.868;10.728;2023-05-07T08:27:40;13.40;99.90
70368;DHT22;57789;53.868;10.728;2023-05-07T08:30:07;13.40;99.90
70368;DHT22;57789;53.868;10.728;2023-05-07T08:32:32;13.70;99.90
70368;DHT22;57789;53.868;10.728;2023-05-07T08:34:59;14.00;99.90
70368;DHT22;57789;53.868;10.728;2023-05-07T08:37:25;13.90;99.90
70368;DHT22;57789;53.868;10.728;2023-05-07T08:39:51;14.00;99.90
70368;DHT22;57789;53.868;10.728;2023-05-07T08:42:17;14.20;99.90
70368;DHT22;57789;53.868;10.728;2023-05-07T08:44:45;14.20;99.90
70368;DHT22;57789;53.868;10.728;2023-05-07T08:47:12;14.20;99.90
70368;DHT22;57789;53.868;10.728;2023-05-07T08:49:38;14.20;99.90
70368;DHT22;57789;53.868;10.728;2023-05-07T08:52:04;14.20;99.90
70368;DHT22;57789;53.868;10.728;2023-05-07T08:54:31;14.20;99.90
70368;DHT22;57789;53.868;10.728;2023-05-07T08:56:57;14.20;99.90
70368;DHT22;57789;53.868;10.728;2023-05-07T08:59:22;14.20;99.90
70368;DHT22;57789;53.868;10.728;2023-05-07T09:01:48;14.10;99.90
70368;DHT22;57789;53.868;10.728;2023-05-07T09:04:14;14.20;99.90
70368;DHT22;57789;53.868;10.728;2023-05-07T09:06:40;14.50;99.90
70368;DHT22;57789;53.868;10.728;2023-05-07T09:09:07;14.40;99.90
70368;DHT22;57789;53.868;10.728;2023-05-07T09:11:33;14.20;99.90
70368;DHT22;57789;53.868;10.728;2023-05-07T09:14:00;14.50;99.90
70368;DHT22;57789;53.868;10.728;2023-05-07T09:16:30;14.50;99.90
70368;DHT22;57789;53.868;10.728;2023-05-07T09:18:58;14.70;99.90
70368;DHT22;57789;53.868;10.728;2023-05-07T09:21:24;14.70;99.90
70368;DHT22;57789;53.868;10.728;2023-05-07T09:23:54;15.20;99.90
70368;DHT22;57789;53.868;10.728;2023-05-07T09:26:24;15.40;99.90
70368;DHT22;57789;53.868;10.728;2023-05-07T09:28:51;15.50;99.90
70368;DHT22;57789;53.868;10.728;2023-05-07T09:31:17;15.50;99.90
70368;DHT22;57789;53.868;10.728;2023-05-07T09:33:43;15.50;99.90
70368;DHT22;57789;53.868;10.728;2023-05-07T09:36:09;15.60;99.90
70368;DHT22;57789;53.868;10.728;2023-05-07T09:38:37;15.80;99.90
70368;DHT22;57789;53.868;10.728;2023-05-07T09:41:10;15.90;99.90
70368;DHT22;57789;53.868;10.728;2023-05-07T09:43:38;15.90;99.90
70368;DHT22;57789;53.868;10.728;2023-05-07T09:46:30;16.00;99.90
70368;DHT22;57789;53.868;10.728;2023-05-07T09:49:02;16.10;99.90
70368;DHT22;57789;53.868;10.728;2023-05-07T09:51:39;16.20;99.90
70368;DHT22;57789;53.868;10.728;2023-05-07T09:54:07;16.40;99.90
70368;DHT22;57789;53.868;10.728;2023-05-07T09:56:33;16.70;99.90
70368;DHT22;57789;53.868;10.728;2023-05-07T09:59:00;16.90;99.90
70368;DHT22;57789;53.868;10.728;2023-05-07T10:01:27;17.20;99.90
70368;DHT22;57789;53.868;10.728;2023-05-07T10:03:53;17.10;99.90
70368;DHT22;57789;53.868;10.728;2023-05-07T10:06:20;17.10;99.90
70368;DHT22;57789;53.868;10.728;2023-05-07T10:08:46;17.40;99.90
70368;DHT22;57789;53.868;10.728;2023-05-07T10:11:14;17.60;99.90
70368;DHT22;57789;53.868;10.728;2023-05-07T10:13:42;17.50;99.90
70368;DHT22;57789;53.868;10.728;2023-05-07T10:16:08;17.50;99.90
70368;DHT22;57789;53.868;10.728;2023-05-07T10:18:34;17.60;99.90
70368;DHT22;57789;53.868;10.728;2023-05-07T10:21:22;17.70;99.90
70368;DHT22;57789;53.868;10.728;2023-05-07T10:24:13;17.70;99.90
70368;DHT22;57789;53.868;10.728;2023-05-07T10:26:47;18.00;99.90
70368;DHT22;57789;53.868;10.728;2023-05-07T10:29:42;17.90;99.90
70368;DHT22;57789;53.868;10.728;2023-05-07T10:32:33;17.90;99.90
70368;DHT22;57789;53.868;10.728;2023-05-07T10:35:03;17.80;99.90
70368;DHT22;57789;53.868;10.728;2023-05-07T10:37:31;17.50;99.90
70368;DHT22;57789;53.868;10.728;2023-05-07T10:39:57;17.60;99.90
70368;DHT22;57789;53.868;10.728;2023-05-07T10:42:23;17.60;99.90
70368;DHT22;57789;53.868;10.728;2023-05-07T10:44:49;17.30;99.90
70368;DHT22;57789;53.868;10.728;2023-05-07T10:47:16;17.20;99.90
70368;DHT22;57789;53.868;10.728;2023-05-07T10:54:42;18.00;99.90
70368;DHT22;57789;53.868;10.728;2023-05-07T10:59:56;17.90;99.90
70368;DHT22;57789;53.868;10.728;2023-05-07T11:02:22;18.10;99.90
70368;DHT22;57789;53.868;10.728;2023-05-07T11:05:23;18.30;99.90
70368;DHT22;57789;53.868;10.728;2023-05-07T11:08:02;18.10;99.90
70368;DHT22;57789;53.868;10.728;2023-05-07T11:10:49;18.30;99.90
70368;DHT22;57789;53.868;10.728;2023-05-07T11:13:16;18.60;99.90
70368;DHT22;57789;53.868;10.728;2023-05-07T11:18:10;18.30;99.90
70368;DHT22;57789;53.868;10.728;2023-05-07T11:20:49;18.30;99.90
70368;DHT22;57789;53.868;10.728;2023-05-07T11:26:04;18.50;99.90
70368;DHT22;57789;53.868;10.728;2023-05-07T11:28:32;18.60;99.90
70368;DHT22;57789;53.868;10.728;2023-05-07T11:31:02;18.80;99.90
70368;DHT22;57789;53.868;10.728;2023-05-07T11:33:29;19.00;99.90
70368;DHT22;57789;53.868;10.728;2023-05-07T11:35:56;19.30;99.90
70368;DHT22;57789;53.868;10.728;2023-05-07T11:38:22;19.50;99.90
70368;DHT22;57789;53.868;10.728;2023-05-07T11:40:59;19.60;99.90
70368;DHT22;57789;53.868;10.728;2023-05-07T11:43:27;19.80;99.90
70368;DHT22;57789;53.868;10.728;2023-05-07T11:45:53;20.00;99.90
70368;DHT22;57789;53.868;10.728;2023-05-07T11:48:20;20.20;99.90
70368;DHT22;57789;53.868;10.728;2023-05-07T11:53:25;20.80;99.90
70368;DHT22;57789;53.868;10.728;2023-05-07T11:55:57;21.40;99.90
70368;DHT22;57789;53.868;10.728;2023-05-07T11:58:24;21.30;99.90
70368;DHT22;57789;53.868;10.728;2023-05-07T12:00:51;21.80;99.90
70368;DHT22;57789;53.868;10.728;2023-05-07T12:03:17;22.30;99.90
70368;DHT22;57789;53.868;10.728;2023-05-07T12:05:44;22.40;99.50
70368;DHT22;57789;53.868;10.728;2023-05-07T12:08:17;22.50;97.30
70368;DHT22;57789;53.868;10.728;2023-05-07T12:10:44;23.10;98.50
70368;DHT22;57789;53.868;10.728;2023-05-07T12:13:22;23.20;96.00
70368;DHT22;57789;53.868;10.728;2023-05-07T12:15:52;23.20;96.10
70368;DHT22;57789;53.868;10.728;2023-05-07T12:18:18;23.20;93.50
70368;DHT22;57789;53.868;10.728;2023-05-07T12:20:44;23.00;97.40
70368;DHT22;57789;53.868;10.728;2023-05-07T12:23:11;22.80;95.60
70368;DHT22;57789;53.868;10.728;2023-05-07T12:25:38;22.80;98.40
70368;DHT22;57789;53.868;10.728;2023-05-07T12:28:07;22.50;94.50
70368;DHT22;57789;53.868;10.728;2023-05-07T12:30:37;22.00;95.70
70368;DHT22;57789;53.868;10.728;2023-05-07T12:33:03;21.70;97.50
70368;DHT22;57789;53.868;10.728;2023-05-07T12:35:31;21.90;97.80
70368;DHT22;57789;53.868;10.728;2023-05-07T12:37:58;22.20;96.60
70368;DHT22;57789;53.868;10.728;2023-05-07T12:40:38;22.80;97.30
70368;DHT22;57789;53.868;10.728;2023-05-07T12:43:04;23.60;97.40
70368;DHT22;57789;53.868;10.728;2023-05-07T12:45:30;24.00;91.60
70368;DHT22;57789;53.868;10.728;2023-05-07T12:47:56;23.70;93.80
70368;DHT22;57789;53.868;10.728;2023-05-07T12:50:31;23.20;93.70
70368;DHT22;57789;53.868;10.728;2023-05-07T12:52:57;22.80;95.60
70368;DHT22;57789;53.868;10.728;2023-05-07T12:55:23;22.20;96.70
70368;DHT22;57789;53.868;10.728;2023-05-07T12:57:49;22.00;98.20
70368;DHT22;57789;53.868;10.728;2023-05-07T13:00:17;21.80;96.20
70368;DHT22;57789;53.868;10.728;2023-05-07T13:02:44;22.00;96.10
70368;DHT22;57789;53.868;10.728;2023-05-07T13:05:10;22.40;95.30
70368;DHT22;57789;53.868;10.728;2023-05-07T13:07:36;22.60;93.00
70368;DHT22;57789;53.868;10.728;2023-05-07T13:10:03;22.00;94.00
70368;DHT22;57789;53.868;10.728;2023-05-07T13:12:32;22.10;95.00
70368;DHT22;57789;53.868;10.728;2023-05-07T13:14:58;22.70;93.30
70368;DHT22;57789;53.868;10.728;2023-05-07T13:17:24;23.20;90.90
70368;DHT22;57789;53.868;10.728;2023-05-07T13:19:50;23.70;89.10
70368;DHT22;57789;53.868;10.728;2023-05-07T13:22:16;23.90;88.10
70368;DHT22;57789;53.868;10.728;2023-05-07T13:24:41;24.80;80.50
70368;DHT22;57789;53.868;10.728;2023-05-07T13:27:09;24.50;77.90
70368;DHT22;57789;53.868;10.728;2023-05-07T13:29:34;24.10;82.20
70368;DHT22;57789;53.868;10.728;2023-05-07T13:32:01;23.70;83.20
70368;DHT22;57789;53.868;10.728;2023-05-07T13:34:27;23.90;85.00
70368;DHT22;57789;53.868;10.728;2023-05-07T13:36:53;23.80;83.70
70368;DHT22;57789;53.868;10.728;2023-05-07T13:39:19;24.00;78.90
70368;DHT22;57789;53.868;10.728;2023-05-07T13:41:45;23.90;81.40
70368;DHT22;57789;53.868;10.728;2023-05-07T13:44:11;23.90;88.90
70368;DHT22;57789;53.868;10.728;2023-05-07T13:46:37;24.60;87.60
70368;DHT22;57789;53.868;10.728;2023-05-07T13:49:02;24.90;79.30
70368;DHT22;57789;53.868;10.728;2023-05-07T13:51:28;25.00;75.00
70368;DHT22;57789;53.868;10.728;2023-05-07T13:53:54;23.70;79.70
70368;DHT22;57789;53.868;10.728;2023-05-07T13:56:20;23.20;88.70
70368;DHT22;57789;53.868;10.728;2023-05-07T13:58:46;23.20;91.00
70368;DHT22;57789;53.868;10.728;2023-05-07T14:01:12;22.80;91.90
70368;DHT22;57789;53.868;10.728;2023-05-07T14:03:38;22.70;93.60
70368;DHT22;57789;53.868;10.728;2023-05-07T14:06:05;23.30;94.20
70368;DHT22;57789;53.868;10.728;2023-05-07T14:08:31;24.00;91.90
70368;DHT22;57789;53.868;10.728;2023-05-07T14:10:57;23.50;91.40
70368;DHT22;57789;53.868;10.728;2023-05-07T14:13:23;22.90;91.30
70368;DHT22;57789;53.868;10.728;2023-05-07T14:15:48;22.60;91.60
70368;DHT22;57789;53.868;10.728;2023-05-07T14:18:15;22.20;93.10
70368;DHT22;57789;53.868;10.728;2023-05-07T14:20:44;21.90;96.40
70368;DHT22;57789;53.868;10.728;2023-05-07T14:23:11;21.60;97.20
70368;DHT22;57789;53.868;10.728;2023-05-07T14:25:37;21.30;97.50
70368;DHT22;57789;53.868;10.728;2023-05-07T14:28:03;21.10;97.50
70368;DHT22;57789;53.868;10.728;2023-05-07T14:30:29;21.20;99.40
70368;DHT22;57789;53.868;10.728;2023-05-07T14:32:55;21.10;98.00
70368;DHT22;57789;53.868;10.728;2023-05-07T14:35:20;20.60;97.60
70368;DHT22;57789;53.868;10.728;2023-05-07T14:37:46;20.40;98.30
70368;DHT22;57789;53.868;10.728;2023-05-07T14:40:12;21.10;99.50
70368;DHT22;57789;53.868;10.728;2023-05-07T14:42:38;22.30;97.20
70368;DHT22;57789;53.868;10.728;2023-05-07T14:45:04;23.20;93.80
70368;DHT22;57789;53.868;10.728;2023-05-07T14:47:30;24.10;87.50
70368;DHT22;57789;53.868;10.728;2023-05-07T14:49:56;24.90;77.20
70368;DHT22;57789;53.868;10.728;2023-05-07T14:52:22;25.40;74.50
70368;DHT22;57789;53.868;10.728;2023-05-07T14:54:48;26.30;68.30
70368;DHT22;57789;53.868;10.728;2023-05-07T14:57:14;26.50;64.10
70368;DHT22;57789;53.868;10.728;2023-05-07T14:59:42;26.40;62.90
70368;DHT22;57789;53.868;10.728;2023-05-07T15:02:09;26.90;63.20
70368;DHT22;57789;53.868;10.728;2023-05-07T15:04:35;28.10;63.30
70368;DHT22;57789;53.868;10.728;2023-05-07T15:07:01;28.40;61.10
70368;DHT22;57789;53.868;10.728;2023-05-07T15:09:27;28.30;57.10
70368;DHT22;57789;53.868;10.728;2023-05-07T15:11:52;27.70;57.30
70368;DHT22;57789;53.868;10.728;2023-05-07T15:14:18;27.10;57.60
70368;DHT22;57789;53.868;10.728;2023-05-07T15:16:44;25.80;60.80
70368;DHT22;57789;53.868;10.728;2023-05-07T15:19:10;25.50;66.70
70368;DHT22;57789;53.868;10.728;2023-05-07T15:21:36;25.90;66.60
70368;DHT22;57789;53.868;10.728;2023-05-07T15:24:02;25.50;65.80
70368;DHT22;57789;53.868;10.728;2023-05-07T15:26:28;24.90;69.00
70368;DHT22;57789;53.868;10.728;2023-05-07T15:28:55;23.90;74.30
70368;DHT22;57789;53.868;10.728;2023-05-07T15:31:24;23.20;79.70
70368;DHT22;57789;53.868;10.728;2023-05-07T15:33:50;22.50;86.30
70368;DHT22;57789;53.868;10.728;2023-05-07T15:36:17;22.00;90.60